TAF LEVX
AMD LEVX 090948Z 0909/1006 28007KT 9999 SCT010 BKN020 TX13/0914Z TN10/1006Z TEMPO 0909/1006 3000 -RADZ BKN010 PROB30 TEMPO 0909/0918 0800 BCFG BKN002 TEMPO 0918/1006 0800 FG BKN002 TEMPO 0921/1006 0350 FG VV001=
METAR LEVX
LEVX 091030Z 22003KT 160V290 4800 BR SCT022 BKN030 11/10 Q1026 NOSIG=
LEVX 091000Z 27006KT 230V320 9999 FEW025 BKN033 12/10 Q1025 TEMPO 3000 -RA=
LEVX 090930Z 29005KT 220V340 5000 BR SCT007 SCT011 BKN025 11/10 Q1025 TEMPO 3000=
LEVX 090900Z 28004KT 210V340 5000 -DZ BR BKN016 BKN020 11/10 Q1025 TEMPO 3000=
LEVX 090830Z 28006KT 230V320 1500 -RA BR BKN008 BKN011 OVC020 11/10 Q1025 RERA TEMPO 4000=
WC LEVX
WS LEVX
WV LEVX